Time;durP1;ratioP1;P1;durP2;ratioP2;P2;SDS_P1;SDS_P2;PMS_P1;PMS_P2;Temp;Humidity;BMP_temperature;BMP_pressure;BME280_temperature;BME280_humidity;BME280_pressure;Samples;Min_cycle;Max_cycle;Signal;HPM_P1;HPM_P2
2023/03/12 00:02:21;;;;;;;4.22;3.25;;;-1.80;99.90;;;;;;5069942;28;20201;-69
2023/03/12 00:04:47;;;;;;;2.83;2.08;;;-1.80;99.90;;;;;;5070098;28;20242;-69
2023/03/12 00:07:14;;;;;;;3.03;1.60;;;-1.90;99.90;;;;;;5069906;28;20201;-69
2023/03/12 00:09:41;;;;;;;3.38;2.35;;;-1.90;99.90;;;;;;5070376;28;20740;-70
2023/03/12 00:12:08;;;;;;;4.80;2.60;;;-1.90;99.90;;;;;;5070150;28;20561;-69
2023/03/12 00:14:36;;;;;;;2.90;1.77;;;-1.80;99.90;;;;;;5069232;28;20662;-69
2023/03/12 00:17:03;;;;;;;2.45;2.22;;;-1.90;99.90;;;;;;5058718;28;20205;-69
2023/03/12 00:19:30;;;;;;;1.98;1.45;;;-1.80;99.90;;;;;;5062667;28;20200;-69
2023/03/12 00:21:57;;;;;;;3.15;2.03;;;-1.90;99.90;;;;;;5055454;28;20604;-69
2023/03/12 00:24:24;;;;;;;1.75;1.42;;;-1.80;99.90;;;;;;5050527;28;20305;-68
2023/03/12 00:26:50;;;;;;;1.90;1.70;;;-1.90;99.90;;;;;;5041857;28;20695;-68
2023/03/12 00:29:17;;;;;;;2.20;2.00;;;-1.90;99.90;;;;;;5042245;28;20212;-68
2023/03/12 00:31:45;;;;;;;8.55;1.95;;;-1.90;99.90;;;;;;5032480;28;20226;-68
2023/03/12 00:34:12;;;;;;;3.03;2.65;;;-2.00;99.90;;;;;;5038271;28;20221;-68
2023/03/12 00:36:40;;;;;;;2.13;1.58;;;-2.00;99.90;;;;;;5047162;28;20201;-69
2023/03/12 00:39:06;;;;;;;1.92;1.73;;;-2.00;99.90;;;;;;5037545;28;20715;-69
2023/03/12 00:41:33;;;;;;;4.80;1.92;;;-2.00;99.90;;;;;;5038359;28;20232;-69
2023/03/12 00:44:00;;;;;;;3.00;2.40;;;-2.00;99.90;;;;;;5041768;28;20676;-67
2023/03/12 00:46:27;;;;;;;4.57;1.90;;;-2.10;99.90;;;;;;5049838;28;20197;-67
2023/03/12 00:48:55;;;;;;;4.70;2.15;;;-2.00;99.90;;;;;;5049956;28;20220;-66
2023/03/12 00:51:21;;;;;;;7.03;2.08;;;-2.00;99.90;;;;;;5041644;28;20224;-68
2023/03/12 00:53:48;;;;;;;3.53;2.25;;;-2.00;99.90;;;;;;5041447;28;20252;-67
2023/03/12 00:56:15;;;;;;;4.30;3.40;;;-2.00;99.90;;;;;;5049625;28;20201;-67
2023/03/12 00:58:42;;;;;;;2.30;2.10;;;-2.10;99.90;;;;;;5041661;28;20713;-68
2023/03/12 01:01:09;;;;;;;3.25;2.28;;;-2.00;99.90;;;;;;5049970;28;20197;-68
2023/03/12 01:03:36;;;;;;;4.53;1.83;;;-2.00;99.90;;;;;;5032904;28;20232;-67
2023/03/12 01:06:05;;;;;;;2.10;1.90;;;-2.00;99.90;;;;;;5046203;28;20202;-67
2023/03/12 01:08:32;;;;;;;3.85;2.45;;;-2.00;99.90;;;;;;5030049;28;20209;-68
2023/03/12 01:10:59;;;;;;;6.82;2.40;;;-2.00;99.90;;;;;;5041090;28;20561;-67
2023/03/12 01:13:25;;;;;;;2.97;2.17;;;-2.00;99.90;;;;;;5041210;28;20221;-68
2023/03/12 01:15:52;;;;;;;4.13;2.28;;;-1.90;99.90;;;;;;5033040;28;20221;-67
2023/03/12 01:18:19;;;;;;;2.50;1.85;;;-1.90;99.90;;;;;;5049638;28;20684;-67
2023/03/12 01:20:50;;;;;;;6.45;2.60;;;-1.90;99.90;;;;;;5049743;28;20208;-68
2023/03/12 01:23:18;;;;;;;3.30;2.10;;;-1.90;99.90;;;;;;5035798;28;20221;-67
2023/03/12 01:25:46;;;;;;;3.10;1.95;;;-1.80;99.90;;;;;;5187171;23;20205;-76
2023/03/12 01:28:13;;;;;;;3.03;2.45;;;-1.80;99.90;;;;;;4996376;28;20273;-76
2023/03/12 01:30:39;;;;;;;2.90;2.40;;;-1.80;99.90;;;;;;5006416;28;20875;-76
2023/03/12 01:33:06;;;;;;;4.47;2.67;;;-1.70;99.90;;;;;;5009435;28;20222;-74
2023/03/12 01:35:36;;;;;;;4.43;2.53;;;-1.70;99.90;;;;;;5009665;28;20206;-75
2023/03/12 01:38:03;;;;;;;2.22;1.90;;;-1.70;99.90;;;;;;4998121;28;20207;-76
2023/03/12 01:40:34;;;;;;;2.75;2.35;;;-1.70;99.90;;;;;;4990001;28;20207;-76
2023/03/12 01:43:24;;;;;;;2.80;2.50;;;-1.60;99.90;;;;;;5009072;28;20576;-76
2023/03/12 01:46:11;;;;;;;3.90;2.40;;;-1.60;99.90;;;;;;5008950;28;20230;-76
2023/03/12 01:48:41;;;;;;;3.05;2.53;;;-1.50;99.90;;;;;;5009572;28;20203;-76
2023/03/12 01:51:10;;;;;;;3.80;2.63;;;-1.50;99.90;;;;;;4997613;28;20229;-76
2023/03/12 01:53:38;;;;;;;5.93;3.33;;;-1.50;99.90;;;;;;4990005;28;20231;-76
2023/03/12 01:56:08;;;;;;;4.63;2.85;;;-1.40;99.90;;;;;;4991665;28;20213;-76
2023/03/12 01:58:39;;;;;;;3.13;2.20;;;-1.40;99.90;;;;;;5001275;28;20199;-76
2023/03/12 02:01:07;;;;;;;4.82;3.10;;;-1.30;99.90;;;;;;4993464;28;20413;-76
2023/03/12 02:03:35;;;;;;;3.05;2.67;;;-1.30;99.90;;;;;;4993366;28;20617;-76
2023/03/12 02:06:06;;;;;;;5.20;2.88;;;-1.20;99.90;;;;;;4995979;28;20582;-76
2023/03/12 02:08:36;;;;;;;1.88;1.75;;;-1.20;99.90;;;;;;5013126;28;20199;-76
2023/03/12 02:11:04;;;;;;;6.50;3.38;;;-1.10;99.90;;;;;;4993062;28;20230;-76
2023/03/12 02:13:32;;;;;;;3.17;2.65;;;-1.00;99.90;;;;;;4993081;28;20219;-76
2023/03/12 02:15:59;;;;;;;3.22;1.98;;;-1.00;99.90;;;;;;4992750;28;20226;-76
2023/03/12 02:18:26;;;;;;;3.47;2.30;;;-1.00;99.90;;;;;;4993060;28;20666;-76
2023/03/12 02:21:02;;;;;;;3.30;3.03;;;-0.90;99.90;;;;;;4994927;28;20199;-76
2023/03/12 02:23:35;;;;;;;7.55;3.30;;;-0.90;99.90;;;;;;5012796;28;20228;-76
2023/03/12 02:26:05;;;;;;;4.18;2.25;;;-0.80;99.90;;;;;;5011775;28;20206;-76
2023/03/12 02:28:34;;;;;;;4.93;3.50;;;-0.80;99.90;;;;;;5012921;28;20206;-76
2023/03/12 02:31:06;;;;;;;5.97;2.50;;;-0.70;99.90;;;;;;5012261;28;20237;-76
2023/03/12 02:33:32;;;;;;;6.68;2.60;;;-0.70;99.90;;;;;;5012231;28;20227;-76
2023/03/12 02:35:59;;;;;;;2.45;2.25;;;-0.70;99.90;;;;;;5001424;28;20218;-76
2023/03/12 02:38:42;;;;;;;3.55;2.55;;;-0.60;99.90;;;;;;4992929;28;20230;-76
2023/03/12 02:41:17;;;;;;;5.25;3.63;;;-0.60;99.90;;;;;;4992680;28;20211;-76
2023/03/12 02:43:47;;;;;;;2.10;1.90;;;-0.60;99.90;;;;;;4992088;28;20281;-76
2023/03/12 02:46:14;;;;;;;3.40;3.10;;;-0.60;99.90;;;;;;4992454;28;20203;-76
2023/03/12 02:48:41;;;;;;;4.47;2.72;;;-0.50;99.90;;;;;;4992633;28;20207;-76
2023/03/12 02:51:08;;;;;;;4.85;2.95;;;-0.50;99.90;;;;;;4992080;28;20690;-76
2023/03/12 02:53:34;;;;;;;5.00;3.15;;;-0.50;99.90;;;;;;4992310;28;20233;-76
2023/03/12 02:56:02;;;;;;;8.00;3.67;;;-0.40;99.90;;;;;;4992021;28;20203;-76
2023/03/12 02:58:30;;;;;;;5.50;2.83;;;-0.40;99.90;;;;;;4992439;28;20210;-76
2023/03/12 03:00:56;;;;;;;3.45;2.70;;;-0.40;99.90;;;;;;4991973;28;20213;-76
2023/03/12 03:03:23;;;;;;;5.18;3.40;;;-0.40;99.90;;;;;;4998016;28;20639;-76
2023/03/12 03:05:50;;;;;;;4.35;3.22;;;-0.40;99.90;;;;;;5011553;28;20280;-76
2023/03/12 03:08:17;;;;;;;4.25;3.28;;;-0.40;99.90;;;;;;5011959;28;20206;-75
2023/03/12 03:10:44;;;;;;;4.38;2.55;;;-0.40;99.90;;;;;;5003593;28;20203;-75
2023/03/12 03:13:11;;;;;;;4.35;2.70;;;-0.40;99.90;;;;;;4991916;28;20661;-75
2023/03/12 03:15:39;;;;;;;7.20;3.05;;;-0.40;99.90;;;;;;4991808;28;20210;-75
2023/03/12 03:18:06;;;;;;;4.10;3.20;;;-0.40;99.90;;;;;;5003072;28;20573;-75
2023/03/12 03:20:33;;;;;;;3.95;3.53;;;-0.30;99.90;;;;;;5011592;28;20715;-75
2023/03/12 03:22:59;;;;;;;2.78;2.58;;;-0.30;99.90;;;;;;5010915;28;20208;-75
2023/03/12 03:25:26;;;;;;;2.65;2.45;;;-0.30;99.90;;;;;;5011124;28;20202;-75
2023/03/12 03:27:53;;;;;;;6.95;3.30;;;-0.20;99.90;;;;;;5010063;28;20590;-75
2023/03/12 03:30:21;;;;;;;2.83;2.55;;;-0.20;99.90;;;;;;4996632;28;20214;-75
2023/03/12 03:32:49;;;;;;;5.82;2.90;;;-0.20;99.90;;;;;;5010869;28;20305;-75
2023/03/12 03:35:17;;;;;;;4.38;2.30;;;-0.20;99.90;;;;;;5010988;28;20632;-75
2023/03/12 03:37:43;;;;;;;4.72;2.88;;;-0.20;99.90;;;;;;5011474;28;20206;-75
2023/03/12 03:40:11;;;;;;;3.58;2.35;;;-0.20;99.90;;;;;;4991595;28;20570;-75
2023/03/12 03:42:39;;;;;;;3.20;2.90;;;-0.20;99.90;;;;;;4991754;28;20675;-75
2023/03/12 03:45:08;;;;;;;3.08;2.78;;;-0.20;99.90;;;;;;4990948;28;20572;-75
2023/03/12 03:47:35;;;;;;;3.97;2.47;;;-0.20;99.90;;;;;;4991892;28;20203;-75
2023/03/12 03:50:04;;;;;;;2.33;1.88;;;-0.20;99.90;;;;;;4991478;28;20199;-75
2023/03/12 03:52:31;;;;;;;6.05;4.15;;;-0.20;99.90;;;;;;4991601;28;20722;-75
2023/03/12 03:54:58;;;;;;;4.35;3.20;;;-0.20;99.90;;;;;;5001021;28;20238;-75
2023/03/12 03:57:25;;;;;;;3.75;2.80;;;-0.20;99.90;;;;;;5011230;28;20281;-75
2023/03/12 03:59:52;;;;;;;6.00;3.25;;;-0.10;99.90;;;;;;5010274;28;20583;-75
2023/03/12 04:02:19;;;;;;;5.60;3.00;;;-0.10;99.90;;;;;;5000908;28;20191;-75
2023/03/12 04:04:45;;;;;;;3.42;2.83;;;-0.10;99.90;;;;;;5000072;28;20586;-74
2023/03/12 04:07:13;;;;;;;3.78;2.70;;;-0.10;99.90;;;;;;5003583;28;20213;-74
2023/03/12 04:09:40;;;;;;;8.73;3.17;;;0.00;99.90;;;;;;5011360;28;20843;-75
2023/03/12 04:12:07;;;;;;;3.20;2.90;;;0.00;99.90;;;;;;4992611;28;20226;-74
2023/03/12 04:14:34;;;;;;;5.75;2.50;;;0.10;99.90;;;;;;4992208;28;20316;-75
2023/03/12 04:17:01;;;;;;;3.78;2.60;;;0.10;99.90;;;;;;4991729;28;20210;-74
2023/03/12 04:19:28;;;;;;;3.35;2.35;;;0.20;99.90;;;;;;4991160;28;20203;-75
2023/03/12 04:21:54;;;;;;;4.53;2.80;;;0.20;99.90;;;;;;5008476;28;20578;-75
2023/03/12 04:24:22;;;;;;;4.28;2.78;;;0.20;99.90;;;;;;5002947;28;20737;-75
2023/03/12 04:26:50;;;;;;;5.40;3.35;;;0.30;99.90;;;;;;4994132;28;20399;-75
2023/03/12 04:29:17;;;;;;;2.40;1.95;;;0.30;99.90;;;;;;4995780;28;20727;-75
2023/03/12 04:31:44;;;;;;;5.47;2.13;;;0.40;99.90;;;;;;5010822;28;20204;-75
2023/03/12 04:34:11;;;;;;;2.53;2.05;;;0.30;99.90;;;;;;5010824;28;20222;-75
2023/03/12 04:36:37;;;;;;;2.90;2.70;;;0.40;99.90;;;;;;5004680;28;20210;-75
2023/03/12 04:39:06;;;;;;;4.50;2.63;;;0.40;99.90;;;;;;5010152;28;20205;-75
2023/03/12 04:41:35;;;;;;;3.30;2.97;;;0.50;99.90;;;;;;4997131;28;20273;-75
2023/03/12 04:44:02;;;;;;;5.55;2.63;;;0.50;99.90;;;;;;4992976;28;20215;-75
2023/03/12 04:46:29;;;;;;;3.53;2.33;;;0.60;99.90;;;;;;5011060;28;20199;-75
2023/03/12 04:48:56;;;;;;;2.97;2.35;;;0.60;99.90;;;;;;5003125;28;20579;-75
2023/03/12 04:51:24;;;;;;;3.90;2.50;;;0.60;99.90;;;;;;5006532;28;20207;-75
2023/03/12 04:53:50;;;;;;;4.68;2.10;;;0.70;99.90;;;;;;4991464;28;20226;-75
2023/03/12 04:56:17;;;;;;;3.55;2.70;;;0.70;99.90;;;;;;5011192;28;20550;-75
2023/03/12 04:58:46;;;;;;;2.90;2.67;;;0.70;99.90;;;;;;5011385;28;20199;-74
2023/03/12 05:01:23;;;;;;;4.82;2.75;;;0.80;99.90;;;;;;5003055;28;20279;-74
2023/03/12 05:03:49;;;;;;;2.50;2.30;;;0.90;99.90;;;;;;5002863;28;20246;-75
2023/03/12 05:06:16;;;;;;;2.35;2.15;;;0.90;99.90;;;;;;4994523;28;20225;-75
2023/03/12 05:08:43;;;;;;;3.70;2.55;;;1.00;99.90;;;;;;5010151;28;20198;-75
2023/03/12 05:11:10;;;;;;;2.55;2.33;;;1.00;99.90;;;;;;5004237;28;20210;-75
2023/03/12 05:13:36;;;;;;;5.50;3.38;;;1.00;99.90;;;;;;4998779;28;20219;-75
2023/03/12 05:16:05;;;;;;;3.88;3.17;;;1.10;99.90;;;;;;5001212;28;20198;-76
2023/03/12 05:18:32;;;;;;;3.40;3.08;;;1.10;99.90;;;;;;5002055;28;20199;-76
2023/03/12 05:21:00;;;;;;;4.35;2.75;;;1.10;99.90;;;;;;5003821;28;20725;-76
2023/03/12 05:23:28;;;;;;;6.32;3.15;;;1.10;99.90;;;;;;4998991;28;20211;-74
2023/03/12 05:25:55;;;;;;;4.40;3.03;;;1.10;99.90;;;;;;5002776;28;20198;-74
2023/03/12 05:28:26;;;;;;;6.00;3.67;;;1.20;99.90;;;;;;5002874;28;20198;-74
2023/03/12 05:30:54;;;;;;;4.32;3.13;;;1.20;99.90;;;;;;5004604;28;20199;-74
2023/03/12 05:33:22;;;;;;;3.42;3.13;;;1.20;99.90;;;;;;5006841;28;20613;-75
2023/03/12 05:35:49;;;;;;;6.28;4.32;;;1.20;99.90;;;;;;5006705;28;20626;-74
2023/03/12 05:38:16;;;;;;;8.70;3.25;;;1.20;99.90;;;;;;5004029;28;20920;-74
2023/03/12 05:40:42;;;;;;;4.40;3.30;;;1.20;99.90;;;;;;5005970;28;20195;-74
2023/03/12 05:43:09;;;;;;;5.05;3.20;;;1.10;99.90;;;;;;5007888;28;20218;-74
2023/03/12 05:45:36;;;;;;;3.60;3.30;;;1.10;99.90;;;;;;5004868;28;20203;-75
2023/03/12 05:48:03;;;;;;;4.85;3.42;;;1.10;99.90;;;;;;5007504;28;20203;-75
2023/03/12 05:50:31;;;;;;;3.17;2.88;;;1.10;99.90;;;;;;5005523;28;20206;-74
2023/03/12 05:52:57;;;;;;;3.72;3.17;;;1.20;99.90;;;;;;5004963;28;20210;-75
2023/03/12 05:55:24;;;;;;;3.28;2.85;;;1.20;99.90;;;;;;5003350;28;20194;-74
2023/03/12 05:57:51;;;;;;;3.35;3.05;;;1.10;99.90;;;;;;5007104;28;20590;-75
2023/03/12 06:00:19;;;;;;;5.90;3.65;;;1.20;99.90;;;;;;5006513;28;20206;-74
2023/03/12 06:02:46;;;;;;;5.47;3.95;;;1.20;99.90;;;;;;5005172;28;20270;-74
2023/03/12 06:05:13;;;;;;;4.65;2.97;;;1.20;99.90;;;;;;5005301;28;20201;-74
2023/03/12 06:07:41;;;;;;;3.17;2.83;;;1.20;99.90;;;;;;5006649;28;20206;-75
2023/03/12 06:10:09;;;;;;;4.28;3.78;;;1.30;99.90;;;;;;5007819;28;20210;-75
2023/03/12 06:12:36;;;;;;;4.72;3.22;;;1.20;99.90;;;;;;5005035;28;20659;-74
2023/03/12 06:15:03;;;;;;;5.38;3.25;;;1.20;99.90;;;;;;5007450;28;20214;-75
2023/03/12 06:17:31;;;;;;;3.15;2.90;;;1.20;99.90;;;;;;5005118;28;20207;-75
2023/03/12 06:19:58;;;;;;;4.05;3.10;;;1.20;99.90;;;;;;5007830;28;20269;-75
2023/03/12 06:22:25;;;;;;;3.40;3.10;;;1.20;99.90;;;;;;5005306;28;20205;-75
2023/03/12 06:24:54;;;;;;;10.40;3.92;;;1.20;99.90;;;;;;5005057;28;20254;-75
2023/03/12 06:27:21;;;;;;;6.72;3.72;;;1.20;99.90;;;;;;5005703;28;20221;-75
2023/03/12 06:29:48;;;;;;;3.40;2.92;;;1.10;99.90;;;;;;5006131;28;20206;-75
2023/03/12 06:32:15;;;;;;;5.72;3.38;;;1.10;99.90;;;;;;5003133;28;20202;-74
2023/03/12 06:34:42;;;;;;;4.22;3.53;;;1.10;99.90;;;;;;5005025;28;20687;-74
2023/03/12 06:37:08;;;;;;;3.53;3.22;;;1.00;99.90;;;;;;5006701;28;20210;-74
2023/03/12 06:39:35;;;;;;;3.28;2.97;;;1.10;99.90;;;;;;5004538;28;20219;-75
2023/03/12 06:42:04;;;;;;;3.67;3.38;;;1.20;99.90;;;;;;5004674;28;20600;-75
2023/03/12 06:44:31;;;;;;;7.50;3.95;;;1.20;99.90;;;;;;5003981;28;20596;-74
2023/03/12 06:46:58;;;;;;;10.35;5.28;;;1.20;99.90;;;;;;5006690;28;20550;-74
2023/03/12 06:49:26;;;;;;;5.43;3.40;;;1.30;99.90;;;;;;5004916;28;20229;-75
2023/03/12 06:51:55;;;;;;;4.45;4.05;;;1.20;99.90;;;;;;5006808;28;20579;-75
2023/03/12 06:54:22;;;;;;;4.30;3.90;;;1.20;99.90;;;;;;5009099;28;20305;-74
2023/03/12 06:56:49;;;;;;;12.45;4.07;;;1.20;99.90;;;;;;5003943;28;20203;-75
2023/03/12 06:59:20;;;;;;;4.07;3.60;;;1.20;99.90;;;;;;5004644;28;20588;-74
2023/03/12 07:01:47;;;;;;;4.40;3.38;;;1.10;99.90;;;;;;5003731;28;20617;-76
2023/03/12 07:04:14;;;;;;;5.57;3.60;;;1.20;99.90;;;;;;5003435;28;20573;-76
2023/03/12 07:06:41;;;;;;;5.13;4.60;;;1.20;99.90;;;;;;5005447;28;20257;-76
2023/03/12 07:09:07;;;;;;;5.05;3.70;;;1.20;99.90;;;;;;5007023;28;20206;-76
2023/03/12 07:11:34;;;;;;;4.38;3.97;;;1.20;99.90;;;;;;5004452;28;20671;-75
2023/03/12 07:14:01;;;;;;;3.90;3.50;;;1.30;99.90;;;;;;5006576;28;20226;-75
2023/03/12 07:16:30;;;;;;;6.63;4.00;;;1.40;99.90;;;;;;5002507;28;20207;-74
2023/03/12 07:18:58;;;;;;;5.25;4.15;;;1.40;99.90;;;;;;5007201;28;20245;-74
2023/03/12 07:21:24;;;;;;;4.50;4.10;;;1.50;99.90;;;;;;5005030;28;20274;-75
2023/03/12 07:23:51;;;;;;;5.22;3.72;;;1.60;99.90;;;;;;5005756;28;20225;-75
2023/03/12 07:26:19;;;;;;;4.80;3.25;;;1.50;99.90;;;;;;5003710;28;20670;-74
2023/03/12 07:28:46;;;;;;;3.63;2.92;;;1.60;99.90;;;;;;5089071;23;20233;-68
2023/03/12 07:31:13;;;;;;;6.43;3.80;;;1.60;99.90;;;;;;5018409;28;20210;-68
2023/03/12 07:33:41;;;;;;;7.72;3.35;;;1.60;99.90;;;;;;5026434;28;20221;-68
2023/03/12 07:36:08;;;;;;;5.55;2.83;;;1.50;99.90;;;;;;5038552;28;20201;-68
2023/03/12 07:38:35;;;;;;;3.65;3.20;;;1.50;99.90;;;;;;5037595;28;20202;-69
2023/03/12 07:41:01;;;;;;;3.60;2.47;;;1.50;99.90;;;;;;5037471;28;20208;-69
2023/03/12 07:43:29;;;;;;;6.55;2.88;;;1.50;99.90;;;;;;5042940;28;20316;-69
2023/03/12 07:45:56;;;;;;;4.05;2.90;;;1.50;99.90;;;;;;5037215;28;20663;-70
2023/03/12 07:48:23;;;;;;;2.97;2.60;;;1.60;99.90;;;;;;5038967;28;20204;-70
2023/03/12 07:50:51;;;;;;;3.53;3.22;;;1.60;99.90;;;;;;5042718;28;20589;-70
2023/03/12 07:53:18;;;;;;;3.60;3.00;;;1.80;99.90;;;;;;5034900;28;20232;-70
2023/03/12 07:55:46;;;;;;;7.20;3.15;;;1.90;99.90;;;;;;5037742;28;20198;-70
2023/03/12 07:58:14;;;;;;;3.63;2.83;;;2.00;99.90;;;;;;5040085;28;20287;-70
2023/03/12 08:00:41;;;;;;;3.28;2.97;;;2.20;99.90;;;;;;5038386;28;20569;-70
2023/03/12 08:03:08;;;;;;;4.68;3.40;;;2.30;99.90;;;;;;5036443;28;20232;-70
2023/03/12 08:05:35;;;;;;;3.53;2.78;;;2.40;99.90;;;;;;5032434;28;20461;-69
2023/03/12 08:08:03;;;;;;;3.92;3.38;;;2.60;99.90;;;;;;5029876;28;20237;-69
2023/03/12 08:10:30;;;;;;;3.65;2.53;;;2.80;99.90;;;;;;5033486;28;20201;-68
2023/03/12 08:12:56;;;;;;;3.03;2.65;;;2.90;99.90;;;;;;5034057;28;20201;-69
2023/03/12 08:15:24;;;;;;;2.42;2.20;;;3.10;99.90;;;;;;5030198;28;20665;-69
2023/03/12 08:17:50;;;;;;;3.22;2.63;;;3.30;99.90;;;;;;5030625;28;20202;-68
2023/03/12 08:20:17;;;;;;;3.50;2.25;;;3.40;99.90;;;;;;5030433;28;20204;-69
2023/03/12 08:22:44;;;;;;;2.67;2.20;;;3.40;99.90;;;;;;5030063;28;20202;-69
2023/03/12 08:25:12;;;;;;;2.70;2.50;;;3.40;99.90;;;;;;5030043;28;20197;-69
2023/03/12 08:27:39;;;;;;;3.60;2.80;;;3.40;99.90;;;;;;5030141;28;20236;-68
2023/03/12 08:30:07;;;;;;;3.40;1.92;;;3.30;99.90;;;;;;5030332;28;20202;-68
2023/03/12 08:32:34;;;;;;;2.97;2.67;;;3.20;99.90;;;;;;5030384;28;20301;-68
2023/03/12 08:35:00;;;;;;;4.50;2.65;;;3.20;99.90;;;;;;5029764;28;20222;-69
2023/03/12 08:37:27;;;;;;;5.40;3.15;;;3.20;99.90;;;;;;5022475;28;20198;-69
2023/03/12 08:39:54;;;;;;;3.25;2.13;;;3.30;99.90;;;;;;5030083;28;20264;-69
2023/03/12 08:42:22;;;;;;;3.55;2.83;;;3.30;99.90;;;;;;5030275;28;20224;-69
2023/03/12 08:44:49;;;;;;;3.13;2.78;;;3.40;99.90;;;;;;5029557;28;20217;-69
2023/03/12 08:47:15;;;;;;;4.63;3.63;;;3.60;99.90;;;;;;5028472;28;20874;-69
2023/03/12 08:49:42;;;;;;;4.35;2.80;;;3.90;99.90;;;;;;5025804;28;20198;-69
2023/03/12 08:52:09;;;;;;;8.60;3.05;;;4.20;99.90;;;;;;5029532;28;20221;-68
2023/03/12 08:54:36;;;;;;;3.17;2.85;;;4.30;99.90;;;;;;5029804;28;20599;-68
2023/03/12 08:57:02;;;;;;;3.90;3.05;;;4.50;99.90;;;;;;5021378;28;20210;-69
2023/03/12 08:59:30;;;;;;;3.90;3.00;;;4.40;99.90;;;;;;5015324;28;20206;-69
2023/03/12 09:01:57;;;;;;;3.95;3.50;;;4.20;99.90;;;;;;5025462;28;20197;-69
2023/03/12 09:04:24;;;;;;;4.00;3.08;;;4.10;99.90;;;;;;5030411;28;20221;-69
2023/03/12 09:06:51;;;;;;;3.50;3.20;;;4.10;99.90;;;;;;5033533;28;20198;-69
2023/03/12 09:09:18;;;;;;;4.78;3.50;;;4.20;99.90;;;;;;5032806;28;20216;-69
2023/03/12 09:11:49;;;;;;;4.45;3.28;;;4.40;99.90;;;;;;5033936;28;20225;-69
2023/03/12 09:14:25;;;;;;;6.20;4.03;;;4.80;99.90;;;;;;5033148;28;20669;-69
2023/03/12 09:16:53;;;;;;;4.13;3.10;;;5.20;99.90;;;;;;5033557;28;20919;-69
2023/03/12 09:19:20;;;;;;;5.40;3.75;;;5.50;99.90;;;;;;5033377;28;20198;-69
2023/03/12 09:21:48;;;;;;;8.98;3.35;;;5.60;99.90;;;;;;5026577;28;20653;-69
2023/03/12 09:24:15;;;;;;;6.00;4.07;;;6.00;99.90;;;;;;5028104;28;20225;-69
2023/03/12 09:26:42;;;;;;;4.65;3.90;;;6.20;99.90;;;;;;5033308;28;20416;-69
2023/03/12 09:29:09;;;;;;;5.05;3.55;;;6.40;99.90;;;;;;5033211;28;20212;-69
2023/03/12 09:31:36;;;;;;;4.93;3.50;;;6.50;99.90;;;;;;5032984;28;20190;-69
2023/03/12 09:34:05;;;;;;;6.13;3.60;;;6.40;99.90;;;;;;5032790;28;20222;-69
2023/03/12 09:36:34;;;;;;;5.30;3.80;;;6.60;99.90;;;;;;5032862;28;20202;-69
2023/03/12 09:39:02;;;;;;;5.20;3.40;;;7.00;99.90;;;;;;5033243;28;20600;-69
2023/03/12 09:41:31;;;;;;;7.13;4.30;;;7.60;99.90;;;;;;5033100;28;20194;-69
2023/03/12 09:44:02;;;;;;;4.55;3.10;;;7.50;99.90;;;;;;5031732;28;20309;-69
2023/03/12 09:46:35;;;;;;;4.85;3.08;;;7.60;99.90;;;;;;5032996;28;20272;-69
2023/03/12 09:49:09;;;;;;;3.53;3.22;;;7.50;99.90;;;;;;5033341;28;20531;-68
2023/03/12 09:51:41;;;;;;;4.28;3.05;;;7.30;99.90;;;;;;5032843;28;20292;-68
2023/03/12 09:54:20;;;;;;;4.05;3.10;;;7.20;99.90;;;;;;5032396;28;20236;-70
2023/03/12 09:56:48;;;;;;;4.10;3.10;;;7.00;99.90;;;;;;5032346;28;20193;-70
2023/03/12 09:59:15;;;;;;;4.57;3.20;;;6.90;99.90;;;;;;5032805;28;20217;-68
2023/03/12 10:01:49;;;;;;;3.90;3.50;;;7.00;99.90;;;;;;5033056;28;20206;-68
2023/03/12 10:04:29;;;;;;;4.85;3.10;;;7.00;99.90;;;;;;5032704;28;20225;-68
2023/03/12 10:07:04;;;;;;;3.42;2.83;;;7.60;99.90;;;;;;5026033;28;20283;-69
2023/03/12 10:09:50;;;;;;;2.88;2.50;;;8.40;99.90;;;;;;5031970;28;20295;-69
2023/03/12 10:12:27;;;;;;;3.08;2.42;;;8.70;99.90;;;;;;5032224;28;20233;-69
2023/03/12 10:15:14;;;;;;;1.95;1.80;;;8.50;99.90;;;;;;5032170;28;20225;-69
2023/03/12 10:17:55;;;;;;;1.65;1.55;;;8.30;99.90;;;;;;5032224;28;20202;-69
2023/03/12 10:20:47;;;;;;;4.85;1.98;;;8.70;99.90;;;;;;5028301;28;20236;-69
2023/03/12 10:23:23;;;;;;;2.13;1.88;;;9.60;99.90;;;;;;5032651;28;20646;-69
2023/03/12 10:25:55;;;;;;;1.90;1.60;;;10.30;99.90;;;;;;5032927;28;20200;-69
2023/03/12 10:28:27;;;;;;;2.05;1.85;;;10.40;99.90;;;;;;5032342;28;20205;-69
2023/03/12 10:30:57;;;;;;;3.38;1.80;;;10.00;99.90;;;;;;5031966;28;20201;-69
2023/03/12 10:33:42;;;;;;;1.40;1.20;;;10.10;99.90;;;;;;5031592;28;20230;-69
2023/03/12 10:36:20;;;;;;;1.50;1.40;;;10.10;99.90;;;;;;5031965;28;20211;-69
2023/03/12 10:38:48;;;;;;;1.27;1.10;;;10.40;99.90;;;;;;5032006;28;20202;-69
2023/03/12 10:41:22;;;;;;;1.88;1.50;;;10.90;99.90;;;;;;5031666;28;20206;-69
2023/03/12 10:43:49;;;;;;;1.75;1.55;;;10.70;99.90;;;;;;5030524;28;20221;-69
2023/03/12 10:46:48;;;;;;;1.88;1.25;;;10.60;99.90;;;;;;5031627;28;20201;-69
2023/03/12 10:49:32;;;;;;;2.35;1.20;;;10.20;99.90;;;;;;5028776;28;20214;-69
2023/03/12 10:52:03;;;;;;;1.35;1.25;;;10.00;99.90;;;;;;5031513;28;20256;-69
2023/03/12 10:54:33;;;;;;;1.80;1.20;;;9.80;99.90;;;;;;5033090;28;20746;-71
2023/03/12 10:57:01;;;;;;;2.55;1.30;;;9.90;99.90;;;;;;5032665;28;20292;-70
2023/03/12 10:59:31;;;;;;;1.20;1.10;;;10.50;99.90;;;;;;5033163;28;20240;-69
2023/03/12 11:01:58;;;;;;;1.70;1.60;;;11.70;99.90;;;;;;5031824;28;20218;-69
2023/03/12 11:04:27;;;;;;;2.20;1.33;;;13.30;99.90;;;;;;5031168;28;20312;-69
2023/03/12 11:07:22;;;;;;;1.13;1.03;;;15.30;99.90;;;;;;5021347;28;20206;-69
2023/03/12 11:10:14;;;;;;;1.50;1.37;;;17.40;99.90;;;;;;5014552;28;20839;-69
2023/03/12 11:12:55;;;;;;;1.60;1.20;;;17.90;99.90;;;;;;5027590;28;20463;-69
2023/03/12 11:15:24;;;;;;;1.60;1.23;;;17.20;99.90;;;;;;5030997;28;20484;-69
2023/03/12 11:17:51;;;;;;;1.70;1.17;;;16.20;99.90;;;;;;5031559;28;20475;-69
2023/03/12 11:20:26;;;;;;;1.40;1.30;;;15.30;99.90;;;;;;5031511;28;20472;-70
2023/03/12 11:22:55;;;;;;;1.77;0.90;;;15.10;99.90;;;;;;5030582;28;20472;-69
2023/03/12 11:25:24;;;;;;;1.73;1.10;;;15.00;99.90;;;;;;5030101;28;20530;-69
2023/03/12 11:27:53;;;;;;;1.30;1.13;;;15.20;99.90;;;;;;5029569;28;20473;-69
2023/03/12 11:30:24;;;;;;;1.10;0.90;;;14.90;99.90;;;;;;5030729;28;20503;-69
2023/03/12 11:32:54;;;;;;;2.20;1.13;;;14.10;99.90;;;;;;5030199;28;20464;-69
2023/03/12 11:35:33;;;;;;;1.57;1.00;;;13.40;99.90;;;;;;5030405;28;20491;-68
2023/03/12 11:38:06;;;;;;;1.00;0.87;;;13.20;99.90;;;;;;5030997;28;20468;-69
2023/03/12 11:40:54;;;;;;;1.10;0.80;;;13.20;99.90;;;;;;5030210;28;22035;-69
2023/03/12 11:43:39;;;;;;;1.37;1.00;;;12.90;99.90;;;;;;5028093;28;20484;-69
2023/03/12 11:46:22;;;;;;;1.73;0.90;;;12.90;99.90;;;;;;5030179;28;20464;-69
2023/03/12 11:48:59;;;;;;;1.38;1.00;;;13.30;99.90;;;;;;5026664;28;20468;-69
2023/03/12 11:51:38;;;;;;;1.30;0.87;;;13.30;99.90;;;;;;5028617;28;20205;-69
2023/03/12 11:54:44;;;;;;;1.20;1.10;;;13.30;99.90;;;;;;5030234;28;20480;-69
2023/03/12 11:57:21;;;;;;;0.93;0.70;;;13.00;99.90;;;;;;5013778;28;20592;-68
2023/03/12 12:00:03;;;;;;;2.07;1.40;;;12.80;99.90;;;;;;5017674;28;20490;-68
2023/03/12 12:02:44;;;;;;;1.15;0.90;;;12.50;99.90;;;;;;5029925;28;20464;-69
2023/03/12 12:05:22;;;;;;;1.52;0.88;;;12.20;99.90;;;;;;5029888;28;20205;-68
2023/03/12 12:08:14;;;;;;;1.25;1.15;;;12.00;99.90;;;;;;5023443;28;20209;-68
2023/03/12 12:10:51;;;;;;;1.50;1.20;;;12.00;99.90;;;;;;5029771;28;20205;-68
2023/03/12 12:13:24;;;;;;;1.13;0.90;;;12.30;99.90;;;;;;5024001;28;20221;-68
2023/03/12 12:16:04;;;;;;;1.50;0.95;;;12.30;99.90;;;;;;5026187;28;20312;-69
2023/03/12 12:18:44;;;;;;;1.88;1.02;;;12.00;99.90;;;;;;5029673;28;20201;-68
2023/03/12 12:21:26;;;;;;;1.90;0.93;;;12.00;99.90;;;;;;5030093;28;20557;-68
2023/03/12 12:24:02;;;;;;;2.80;1.00;;;12.70;99.90;;;;;;5023167;28;20232;-69
2023/03/12 12:26:37;;;;;;;1.65;1.15;;;13.20;99.90;;;;;;5029558;28;20456;-69
2023/03/12 12:29:20;;;;;;;4.13;1.40;;;13.90;99.90;;;;;;5024235;28;20213;-69
2023/03/12 12:31:51;;;;;;;1.93;1.20;;;14.60;99.90;;;;;;5022659;28;20463;-68
2023/03/12 12:34:40;;;;;;;2.23;1.27;;;14.80;99.90;;;;;;5028144;28;20480;-69
2023/03/12 12:37:24;;;;;;;2.63;1.30;;;15.00;99.90;;;;;;5029365;28;20820;-68
2023/03/12 12:39:59;;;;;;;2.63;1.27;;;15.10;99.90;;;;;;5018969;28;20475;-68
2023/03/12 12:42:32;;;;;;;2.17;1.43;;;15.40;99.90;;;;;;5021207;28;20484;-68
2023/03/12 12:45:01;;;;;;;1.67;1.10;;;15.80;99.90;;;;;;5023466;28;20852;-68
2023/03/12 12:47:37;;;;;;;3.23;1.03;;;16.90;99.90;;;;;;5023625;28;20472;-69
2023/03/12 12:50:05;;;;;;;3.77;1.10;;;17.60;99.90;;;;;;5020934;28;20548;-69
2023/03/12 12:52:33;;;;;;;2.07;1.43;;;17.20;99.70;;;;;;5022021;28;20476;-68
2023/03/12 12:55:06;;;;;;;2.60;1.47;;;16.00;99.90;;;;;;5023994;28;21305;-69
2023/03/12 12:57:39;;;;;;;1.87;1.40;;;15.00;99.90;;;;;;5024524;28;20464;-68
2023/03/12 13:00:22;;;;;;;1.47;1.37;;;14.50;99.90;;;;;;5022481;28;20475;-68
2023/03/12 13:02:50;;;;;;;1.70;1.10;;;14.00;99.90;;;;;;5017370;28;20460;-68
2023/03/12 13:05:25;;;;;;;1.30;1.20;;;13.60;99.90;;;;;;5024025;28;20468;-69
2023/03/12 13:07:51;;;;;;;1.20;1.10;;;13.40;99.90;;;;;;5021381;28;20836;-68